West Point, NE

9:12 AM CST on December 05, 2016 (GMT -0600)
Skywave Wireless, Inc. | | Change Station

Elev 1312 ft 41.84 °N, 96.71 °W | Updated 40 seconds ago

Clear
Clear
36.5 °F
Feels Like 31 °F
N
7.2
Wind Variable Wind from SE
Gusts 9.8 mph

Today
High -- | Low -- °F
--% Chance of Precip.
Yesterday
High -- | Low -- °F
Precip. -- in
Pressure 29.73 in
Visibility 10.0 miles
Clouds Clear
Windchill 31 °F
Dew Point 27 °F
Humidity 68%
Rainfall 0.00 in
Snow Depth Not available.
7:39 AM 4:55 PM
Waxing Crescent, 32% visible
METAR KTQE 051454Z AUTO 15013KT 10SM CLR 01/M01 A2971 RMK AO2 SLP066 T00111011 56015
Pressure 29.73 in
Visibility 10.0 miles
Clouds Clear
Windchill 31 °F
Dew Point 27 °F
Humidity 68%
Rainfall 0.00 in
Snow Depth Not available.
7:39 AM 4:55 PM
Waxing Crescent, 32% visible
METAR KTQE 051454Z AUTO 15013KT 10SM CLR 01/M01 A2971 RMK AO2 SLP066 T00111011 56015

10-Day Weather Forecast

Almanac

Astronomy

Dec. 05, 2016 Rise Set
Actual Time
Civil Twilight
Nautical Twilight
Astronomical Twilight
Moon
Length of Visible Light
Length of Day
Tomorrow will be .
, % of the Moon is Illuminated

Today's Extremes

State Highs State Lows

Community

WunderPhotos

Upload Photos

1,955,780 photos uploaded!

WunderBlog® & News

Nearby

Air Quality

  Air Quality AQ Index Pollutant
Not available.

Snow Depth

Station Depth Elevation

Earthquake Activity

City Distance Mag. Time & Date
Minimum magnitude displayed is 2.5.

Coastal Water Temperatures

Place Temperature

Stations

Nearby Weather Stations

Station Location Temp. Windchill Dew Point Humidity Wind Precip. Elev Updated Type
                   

Watches & Warnings

There are currently no watches in effect.